sensor_id;sensor_type;location;lat;lon;timestamp;temperature;humidity
23713;DHT22;12035;49.978;8.298;2022-07-04T00:00:32;26.70;33.60
23713;DHT22;12035;49.978;8.298;2022-07-04T00:05:29;26.70;33.70
23713;DHT22;12035;49.978;8.298;2022-07-04T00:10:29;26.60;33.50
23713;DHT22;12035;49.978;8.298;2022-07-04T00:15:27;26.60;33.80
23713;DHT22;12035;49.978;8.298;2022-07-04T00:20:24;26.50;33.80
23713;DHT22;12035;49.978;8.298;2022-07-04T00:25:22;26.50;33.80
23713;DHT22;12035;49.978;8.298;2022-07-04T00:30:19;26.50;33.90
23713;DHT22;12035;49.978;8.298;2022-07-04T00:35:17;26.50;34.00
23713;DHT22;12035;49.978;8.298;2022-07-04T00:40:15;26.40;34.20
23713;DHT22;12035;49.978;8.298;2022-07-04T00:45:12;26.40;34.20
23713;DHT22;12035;49.978;8.298;2022-07-04T00:50:09;26.30;34.30
23713;DHT22;12035;49.978;8.298;2022-07-04T00:55:09;26.30;34.40
23713;DHT22;12035;49.978;8.298;2022-07-04T01:00:07;26.20;34.80
23713;DHT22;12035;49.978;8.298;2022-07-04T01:05:05;26.20;34.80
23713;DHT22;12035;49.978;8.298;2022-07-04T01:10:04;26.10;34.90
23713;DHT22;12035;49.978;8.298;2022-07-04T01:15:04;26.00;34.90
23713;DHT22;12035;49.978;8.298;2022-07-04T01:20:02;26.00;35.20
23713;DHT22;12035;49.978;8.298;2022-07-04T01:25:01;25.90;35.10
23713;DHT22;12035;49.978;8.298;2022-07-04T01:29:59;25.90;35.40
23713;DHT22;12035;49.978;8.298;2022-07-04T01:34:56;25.80;35.40
23713;DHT22;12035;49.978;8.298;2022-07-04T01:39:53;25.80;35.50
23713;DHT22;12035;49.978;8.298;2022-07-04T01:44:51;25.80;35.60
23713;DHT22;12035;49.978;8.298;2022-07-04T01:49:48;25.80;35.70
23713;DHT22;12035;49.978;8.298;2022-07-04T01:54:45;25.70;35.70
23713;DHT22;12035;49.978;8.298;2022-07-04T01:59:42;25.70;35.60
23713;DHT22;12035;49.978;8.298;2022-07-04T02:04:58;25.70;35.70
23713;DHT22;12035;49.978;8.298;2022-07-04T02:09:55;25.60;35.80
23713;DHT22;12035;49.978;8.298;2022-07-04T02:14:53;25.60;35.90
23713;DHT22;12035;49.978;8.298;2022-07-04T02:19:50;25.60;35.90
23713;DHT22;12035;49.978;8.298;2022-07-04T02:24:48;25.50;35.90
23713;DHT22;12035;49.978;8.298;2022-07-04T02:29:46;25.40;36.20
23713;DHT22;12035;49.978;8.298;2022-07-04T02:34:43;25.40;36.20
23713;DHT22;12035;49.978;8.298;2022-07-04T02:39:40;25.30;36.30
23713;DHT22;12035;49.978;8.298;2022-07-04T02:44:38;25.20;36.40
23713;DHT22;12035;49.978;8.298;2022-07-04T02:49:37;25.10;36.70
23713;DHT22;12035;49.978;8.298;2022-07-04T02:54:34;25.00;36.70
23713;DHT22;12035;49.978;8.298;2022-07-04T02:59:31;24.90;37.00
23713;DHT22;12035;49.978;8.298;2022-07-04T03:04:29;24.80;37.00
23713;DHT22;12035;49.978;8.298;2022-07-04T03:09:26;24.80;37.40
23713;DHT22;12035;49.978;8.298;2022-07-04T03:14:23;24.70;37.40
23713;DHT22;12035;49.978;8.298;2022-07-04T03:19:20;24.70;37.50
23713;DHT22;12035;49.978;8.298;2022-07-04T03:24:19;24.60;37.60
23713;DHT22;12035;49.978;8.298;2022-07-04T03:29:16;24.60;37.80
23713;DHT22;12035;49.978;8.298;2022-07-04T03:34:13;24.50;37.80
23713;DHT22;12035;49.978;8.298;2022-07-04T03:39:10;24.50;37.90
23713;DHT22;12035;49.978;8.298;2022-07-04T03:44:09;24.50;38.10
23713;DHT22;12035;49.978;8.298;2022-07-04T03:49:06;24.40;38.20
23713;DHT22;12035;49.978;8.298;2022-07-04T03:54:03;24.40;38.30
23713;DHT22;12035;49.978;8.298;2022-07-04T03:59:00;24.40;38.50
23713;DHT22;12035;49.978;8.298;2022-07-04T04:03:58;24.50;38.60
23713;DHT22;12035;49.978;8.298;2022-07-04T04:09:13;24.50;38.70
23713;DHT22;12035;49.978;8.298;2022-07-04T04:14:12;24.70;38.80
23713;DHT22;12035;49.978;8.298;2022-07-04T04:19:11;24.90;38.90
23713;DHT22;12035;49.978;8.298;2022-07-04T04:24:09;25.10;38.90
23713;DHT22;12035;49.978;8.298;2022-07-04T04:29:06;25.40;38.90
23713;DHT22;12035;49.978;8.298;2022-07-04T04:34:04;25.90;38.80
23713;DHT22;12035;49.978;8.298;2022-07-04T04:39:02;26.40;38.60
23713;DHT22;12035;49.978;8.298;2022-07-04T04:43:59;26.90;38.20
23713;DHT22;12035;49.978;8.298;2022-07-04T04:48:57;27.50;37.80
23713;DHT22;12035;49.978;8.298;2022-07-04T04:53:54;28.20;37.30
23713;DHT22;12035;49.978;8.298;2022-07-04T04:58:52;28.90;36.80
23713;DHT22;12035;49.978;8.298;2022-07-04T05:03:49;29.70;36.20
23713;DHT22;12035;49.978;8.298;2022-07-04T05:08:46;30.50;35.90
23713;DHT22;12035;49.978;8.298;2022-07-04T05:13:43;31.30;34.80
23713;DHT22;12035;49.978;8.298;2022-07-04T05:18:42;32.00;34.00
23713;DHT22;12035;49.978;8.298;2022-07-04T05:23:39;32.70;32.30
23713;DHT22;12035;49.978;8.298;2022-07-04T05:28:37;33.40;31.70
23713;DHT22;12035;49.978;8.298;2022-07-04T05:33:34;34.00;30.40
23713;DHT22;12035;49.978;8.298;2022-07-04T05:38:32;34.60;29.90
23713;DHT22;12035;49.978;8.298;2022-07-04T05:43:29;35.10;29.10
23713;DHT22;12035;49.978;8.298;2022-07-04T05:48:26;35.70;28.80
23713;DHT22;12035;49.978;8.298;2022-07-04T05:53:24;36.30;28.20
23713;DHT22;12035;49.978;8.298;2022-07-04T05:58:22;36.80;27.30
23713;DHT22;12035;49.978;8.298;2022-07-04T06:03:19;37.30;26.80
23713;DHT22;12035;49.978;8.298;2022-07-04T06:08:16;37.70;26.40
23713;DHT22;12035;49.978;8.298;2022-07-04T06:13:13;38.10;26.30
23713;DHT22;12035;49.978;8.298;2022-07-04T06:18:12;38.60;25.50
23713;DHT22;12035;49.978;8.298;2022-07-04T06:23:10;38.90;24.70
23713;DHT22;12035;49.978;8.298;2022-07-04T06:28:07;39.30;24.80
23713;DHT22;12035;49.978;8.298;2022-07-04T06:33:05;39.70;24.50
23713;DHT22;12035;49.978;8.298;2022-07-04T06:38:03;40.10;24.10
23713;DHT22;12035;49.978;8.298;2022-07-04T06:43:01;40.60;23.90
23713;DHT22;12035;49.978;8.298;2022-07-04T06:47:59;41.10;23.30
23713;DHT22;12035;49.978;8.298;2022-07-04T06:52:56;41.50;22.70
23713;DHT22;12035;49.978;8.298;2022-07-04T06:57:55;41.90;22.20
23713;DHT22;12035;49.978;8.298;2022-07-04T07:02:52;42.00;22.00
23713;DHT22;12035;49.978;8.298;2022-07-04T07:07:49;42.20;21.20
23713;DHT22;12035;49.978;8.298;2022-07-04T07:12:47;42.10;21.10
23713;DHT22;12035;49.978;8.298;2022-07-04T07:17:45;41.90;21.00
23713;DHT22;12035;49.978;8.298;2022-07-04T07:22:43;41.90;21.20
23713;DHT22;12035;49.978;8.298;2022-07-04T07:27:40;42.00;21.00
23713;DHT22;12035;49.978;8.298;2022-07-04T07:32:37;42.20;21.10
23713;DHT22;12035;49.978;8.298;2022-07-04T07:37:36;42.50;20.90
23713;DHT22;12035;49.978;8.298;2022-07-04T07:42:33;42.60;19.90
23713;DHT22;12035;49.978;8.298;2022-07-04T07:47:30;42.50;19.90
23713;DHT22;12035;49.978;8.298;2022-07-04T07:52:28;42.20;19.70
23713;DHT22;12035;49.978;8.298;2022-07-04T07:57:27;41.90;20.10
23713;DHT22;12035;49.978;8.298;2022-07-04T08:02:24;42.00;20.00
23713;DHT22;12035;49.978;8.298;2022-07-04T08:07:35;42.00;19.80
23713;DHT22;12035;49.978;8.298;2022-07-04T08:12:34;41.80;19.80
23713;DHT22;12035;49.978;8.298;2022-07-04T08:17:31;41.60;19.40
23713;DHT22;12035;49.978;8.298;2022-07-04T08:22:28;41.40;19.70
23713;DHT22;12035;49.978;8.298;2022-07-04T08:27:26;41.10;19.90
23713;DHT22;12035;49.978;8.298;2022-07-04T08:32:25;41.00;20.00
23713;DHT22;12035;49.978;8.298;2022-07-04T08:37:22;40.90;20.00
23713;DHT22;12035;49.978;8.298;2022-07-04T08:42:21;40.80;20.20
23713;DHT22;12035;49.978;8.298;2022-07-04T08:47:20;40.80;20.10
23713;DHT22;12035;49.978;8.298;2022-07-04T08:52:30;40.70;20.10
23713;DHT22;12035;49.978;8.298;2022-07-04T08:57:32;40.60;20.00
23713;DHT22;12035;49.978;8.298;2022-07-04T09:02:47;40.30;20.10
23713;DHT22;12035;49.978;8.298;2022-07-04T09:07:46;39.90;19.90
23713;DHT22;12035;49.978;8.298;2022-07-04T09:12:44;39.60;20.10
23713;DHT22;12035;49.978;8.298;2022-07-04T09:17:41;39.30;20.30
23713;DHT22;12035;49.978;8.298;2022-07-04T09:22:38;39.20;20.40
23713;DHT22;12035;49.978;8.298;2022-07-04T09:27:38;39.10;20.40
23713;DHT22;12035;49.978;8.298;2022-07-04T09:32:37;38.70;20.30
23713;DHT22;12035;49.978;8.298;2022-07-04T09:37:37;38.50;20.60
23713;DHT22;12035;49.978;8.298;2022-07-04T09:42:38;38.20;20.70
23713;DHT22;12035;49.978;8.298;2022-07-04T09:47:44;38.00;21.00
23713;DHT22;12035;49.978;8.298;2022-07-04T09:52:57;37.80;21.20
23713;DHT22;12035;49.978;8.298;2022-07-04T09:57:57;37.70;21.20
23713;DHT22;12035;49.978;8.298;2022-07-04T10:02:56;37.70;21.10
23713;DHT22;12035;49.978;8.298;2022-07-04T10:07:55;37.60;21.20
23713;DHT22;12035;49.978;8.298;2022-07-04T10:12:57;37.60;21.10
23713;DHT22;12035;49.978;8.298;2022-07-04T10:17:55;37.50;20.80
23713;DHT22;12035;49.978;8.298;2022-07-04T10:22:53;37.40;20.60
23713;DHT22;12035;49.978;8.298;2022-07-04T10:27:50;37.20;20.90
23713;DHT22;12035;49.978;8.298;2022-07-04T10:32:49;36.90;20.90
23713;DHT22;12035;49.978;8.298;2022-07-04T10:38:01;36.90;20.90
23713;DHT22;12035;49.978;8.298;2022-07-04T10:42:59;36.80;20.60
23713;DHT22;12035;49.978;8.298;2022-07-04T10:47:58;36.50;20.70
23713;DHT22;12035;49.978;8.298;2022-07-04T10:53:09;36.10;20.90
23713;DHT22;12035;49.978;8.298;2022-07-04T10:58:07;36.00;21.00
23713;DHT22;12035;49.978;8.298;2022-07-04T11:03:17;35.90;20.90
23713;DHT22;12035;49.978;8.298;2022-07-04T11:08:15;35.70;20.70
23713;DHT22;12035;49.978;8.298;2022-07-04T11:13:16;35.50;20.90
23713;DHT22;12035;49.978;8.298;2022-07-04T11:18:15;35.30;21.00
23713;DHT22;12035;49.978;8.298;2022-07-04T11:23:14;35.10;21.10
23713;DHT22;12035;49.978;8.298;2022-07-04T11:28:18;35.10;21.60
23713;DHT22;12035;49.978;8.298;2022-07-04T11:33:21;35.10;20.90
23713;DHT22;12035;49.978;8.298;2022-07-04T11:38:19;35.20;21.10
23713;DHT22;12035;49.978;8.298;2022-07-04T11:43:21;35.20;21.30
23713;DHT22;12035;49.978;8.298;2022-07-04T11:48:37;35.20;21.40
23713;DHT22;12035;49.978;8.298;2022-07-04T11:53:34;35.10;21.30
23713;DHT22;12035;49.978;8.298;2022-07-04T11:58:38;35.10;21.20
23713;DHT22;12035;49.978;8.298;2022-07-04T12:03:37;34.90;21.00
23713;DHT22;12035;49.978;8.298;2022-07-04T12:08:35;34.80;21.60
23713;DHT22;12035;49.978;8.298;2022-07-04T12:13:32;34.60;21.20
23713;DHT22;12035;49.978;8.298;2022-07-04T12:18:30;34.40;21.20
23713;DHT22;12035;49.978;8.298;2022-07-04T12:23:29;34.30;21.40
23713;DHT22;12035;49.978;8.298;2022-07-04T12:28:34;34.20;21.70
23713;DHT22;12035;49.978;8.298;2022-07-04T12:33:32;34.10;21.50
23713;DHT22;12035;49.978;8.298;2022-07-04T12:38:36;34.00;21.60
23713;DHT22;12035;49.978;8.298;2022-07-04T12:43:46;34.10;21.40
23713;DHT22;12035;49.978;8.298;2022-07-04T12:48:49;34.00;21.50
23713;DHT22;12035;49.978;8.298;2022-07-04T12:53:49;34.00;21.70
23713;DHT22;12035;49.978;8.298;2022-07-04T12:58:47;33.80;21.40
23713;DHT22;12035;49.978;8.298;2022-07-04T13:03:44;33.80;21.50
23713;DHT22;12035;49.978;8.298;2022-07-04T13:08:41;33.70;21.60
23713;DHT22;12035;49.978;8.298;2022-07-04T13:13:40;33.70;21.60
23713;DHT22;12035;49.978;8.298;2022-07-04T13:18:37;33.70;21.60
23713;DHT22;12035;49.978;8.298;2022-07-04T13:23:35;33.60;21.50
23713;DHT22;12035;49.978;8.298;2022-07-04T13:28:32;33.50;21.30
23713;DHT22;12035;49.978;8.298;2022-07-04T13:33:31;33.50;21.30
23713;DHT22;12035;49.978;8.298;2022-07-04T13:38:28;33.50;21.50
23713;DHT22;12035;49.978;8.298;2022-07-04T13:43:25;33.50;21.60
23713;DHT22;12035;49.978;8.298;2022-07-04T13:48:23;33.50;21.60
23713;DHT22;12035;49.978;8.298;2022-07-04T13:53:22;33.60;21.60
23713;DHT22;12035;49.978;8.298;2022-07-04T13:58:19;33.60;21.70
23713;DHT22;12035;49.978;8.298;2022-07-04T14:03:17;33.60;21.50
23713;DHT22;12035;49.978;8.298;2022-07-04T14:08:15;33.50;21.60
23713;DHT22;12035;49.978;8.298;2022-07-04T14:13:14;33.50;21.60
23713;DHT22;12035;49.978;8.298;2022-07-04T14:18:11;33.50;21.70
23713;DHT22;12035;49.978;8.298;2022-07-04T14:23:09;33.50;21.70
23713;DHT22;12035;49.978;8.298;2022-07-04T14:28:06;33.50;21.40
23713;DHT22;12035;49.978;8.298;2022-07-04T14:33:04;33.50;21.60
23713;DHT22;12035;49.978;8.298;2022-07-04T14:38:01;33.50;21.70
23713;DHT22;12035;49.978;8.298;2022-07-04T14:42:58;33.60;21.70
23713;DHT22;12035;49.978;8.298;2022-07-04T14:47:55;33.70;21.70
23713;DHT22;12035;49.978;8.298;2022-07-04T14:52:54;33.70;21.50
23713;DHT22;12035;49.978;8.298;2022-07-04T14:57:51;33.70;21.50
23713;DHT22;12035;49.978;8.298;2022-07-04T15:02:48;33.60;21.50
23713;DHT22;12035;49.978;8.298;2022-07-04T15:07:45;33.60;21.50
23713;DHT22;12035;49.978;8.298;2022-07-04T15:12:44;33.60;21.70
23713;DHT22;12035;49.978;8.298;2022-07-04T15:17:42;33.60;21.40
23713;DHT22;12035;49.978;8.298;2022-07-04T15:22:40;33.60;21.50
23713;DHT22;12035;49.978;8.298;2022-07-04T15:27:56;33.60;21.60
23713;DHT22;12035;49.978;8.298;2022-07-04T15:32:53;33.60;21.50
23713;DHT22;12035;49.978;8.298;2022-07-04T15:37:50;33.50;21.30
23713;DHT22;12035;49.978;8.298;2022-07-04T15:42:47;33.40;21.30
23713;DHT22;12035;49.978;8.298;2022-07-04T15:47:45;33.50;21.40
23713;DHT22;12035;49.978;8.298;2022-07-04T15:52:42;33.50;21.30
23713;DHT22;12035;49.978;8.298;2022-07-04T15:57:40;33.50;21.30
23713;DHT22;12035;49.978;8.298;2022-07-04T16:02:37;33.50;21.30
23713;DHT22;12035;49.978;8.298;2022-07-04T16:07:36;33.60;21.20
23713;DHT22;12035;49.978;8.298;2022-07-04T16:12:33;33.60;21.20
23713;DHT22;12035;49.978;8.298;2022-07-04T16:17:30;33.60;21.30
23713;DHT22;12035;49.978;8.298;2022-07-04T16:22:28;33.50;21.40
23713;DHT22;12035;49.978;8.298;2022-07-04T16:27:26;33.40;21.20
23713;DHT22;12035;49.978;8.298;2022-07-04T16:32:23;33.30;21.40
23713;DHT22;12035;49.978;8.298;2022-07-04T16:37:21;33.30;21.50
23713;DHT22;12035;49.978;8.298;2022-07-04T16:42:18;33.20;21.60
23713;DHT22;12035;49.978;8.298;2022-07-04T16:47:16;33.10;21.60
23713;DHT22;12035;49.978;8.298;2022-07-04T16:52:14;33.00;21.90
23713;DHT22;12035;49.978;8.298;2022-07-04T16:57:11;33.00;22.10
23713;DHT22;12035;49.978;8.298;2022-07-04T17:02:08;32.90;22.60
23713;DHT22;12035;49.978;8.298;2022-07-04T17:07:06;32.80;22.80
23713;DHT22;12035;49.978;8.298;2022-07-04T17:12:04;32.70;22.90
23713;DHT22;12035;49.978;8.298;2022-07-04T17:17:01;32.50;23.20
23713;DHT22;12035;49.978;8.298;2022-07-04T17:21:59;32.20;23.50
23713;DHT22;12035;49.978;8.298;2022-07-04T17:26:57;31.80;23.80
23713;DHT22;12035;49.978;8.298;2022-07-04T17:31:54;31.60;24.10
23713;DHT22;12035;49.978;8.298;2022-07-04T17:36:51;31.40;24.10
23713;DHT22;12035;49.978;8.298;2022-07-04T17:41:48;31.20;24.20
23713;DHT22;12035;49.978;8.298;2022-07-04T17:46:48;31.10;24.40
23713;DHT22;12035;49.978;8.298;2022-07-04T17:51:45;31.00;24.40
23713;DHT22;12035;49.978;8.298;2022-07-04T17:56:43;30.90;24.50
23713;DHT22;12035;49.978;8.298;2022-07-04T18:01:40;30.80;24.40
23713;DHT22;12035;49.978;8.298;2022-07-04T18:06:38;30.80;24.50
23713;DHT22;12035;49.978;8.298;2022-07-04T18:11:35;30.70;24.60
23713;DHT22;12035;49.978;8.298;2022-07-04T18:16:33;30.50;24.60
23713;DHT22;12035;49.978;8.298;2022-07-04T18:21:30;30.40;24.60
23713;DHT22;12035;49.978;8.298;2022-07-04T18:26:28;30.30;24.70
23713;DHT22;12035;49.978;8.298;2022-07-04T18:31:26;30.30;24.70
23713;DHT22;12035;49.978;8.298;2022-07-04T18:36:24;30.30;24.70
23713;DHT22;12035;49.978;8.298;2022-07-04T18:41:21;30.30;24.70
23713;DHT22;12035;49.978;8.298;2022-07-04T18:46:37;30.30;24.80
23713;DHT22;12035;49.978;8.298;2022-07-04T18:51:34;30.20;24.90
23713;DHT22;12035;49.978;8.298;2022-07-04T18:56:32;30.20;24.90
23713;DHT22;12035;49.978;8.298;2022-07-04T19:01:30;30.10;24.90
23713;DHT22;12035;49.978;8.298;2022-07-04T19:06:29;30.10;25.00
23713;DHT22;12035;49.978;8.298;2022-07-04T19:11:26;30.00;25.10
23713;DHT22;12035;49.978;8.298;2022-07-04T19:16:23;29.90;25.10
23713;DHT22;12035;49.978;8.298;2022-07-04T19:21:20;29.80;25.20
23713;DHT22;12035;49.978;8.298;2022-07-04T19:26:19;29.80;25.30
23713;DHT22;12035;49.978;8.298;2022-07-04T19:31:16;29.80;25.50
23713;DHT22;12035;49.978;8.298;2022-07-04T19:36:14;29.70;25.80
23713;DHT22;12035;49.978;8.298;2022-07-04T19:41:13;29.70;25.50
23713;DHT22;12035;49.978;8.298;2022-07-04T19:46:12;29.60;25.60
23713;DHT22;12035;49.978;8.298;2022-07-04T19:51:09;29.60;25.70
23713;DHT22;12035;49.978;8.298;2022-07-04T19:56:07;29.50;25.70
23713;DHT22;12035;49.978;8.298;2022-07-04T20:01:04;29.50;25.80
23713;DHT22;12035;49.978;8.298;2022-07-04T20:06:03;29.40;25.90
23713;DHT22;12035;49.978;8.298;2022-07-04T20:11:00;29.40;26.10
23713;DHT22;12035;49.978;8.298;2022-07-04T20:15:58;29.40;26.20
23713;DHT22;12035;49.978;8.298;2022-07-04T20:20:55;29.30;26.30
23713;DHT22;12035;49.978;8.298;2022-07-04T20:25:54;29.30;26.30
23713;DHT22;12035;49.978;8.298;2022-07-04T20:30:51;29.20;26.30
23713;DHT22;12035;49.978;8.298;2022-07-04T20:35:48;29.20;26.30
23713;DHT22;12035;49.978;8.298;2022-07-04T20:40:46;29.20;26.40
23713;DHT22;12035;49.978;8.298;2022-07-04T20:45:45;29.10;26.60
23713;DHT22;12035;49.978;8.298;2022-07-04T20:50:42;29.10;26.70
23713;DHT22;12035;49.978;8.298;2022-07-04T20:55:39;29.00;26.70
23713;DHT22;12035;49.978;8.298;2022-07-04T21:00:36;28.90;26.90
23713;DHT22;12035;49.978;8.298;2022-07-04T21:05:35;28.70;27.10
23713;DHT22;12035;49.978;8.298;2022-07-04T21:10:32;28.50;27.20
23713;DHT22;12035;49.978;8.298;2022-07-04T21:15:29;28.40;27.30
23713;DHT22;12035;49.978;8.298;2022-07-04T21:20:26;28.30;27.40
23713;DHT22;12035;49.978;8.298;2022-07-04T21:25:25;28.30;27.30
23713;DHT22;12035;49.978;8.298;2022-07-04T21:30:22;28.30;27.60
23713;DHT22;12035;49.978;8.298;2022-07-04T21:35:20;28.20;27.60
23713;DHT22;12035;49.978;8.298;2022-07-04T21:40:17;28.20;27.60
23713;DHT22;12035;49.978;8.298;2022-07-04T21:45:15;28.10;27.60
23713;DHT22;12035;49.978;8.298;2022-07-04T21:50:12;28.10;27.70
23713;DHT22;12035;49.978;8.298;2022-07-04T21:55:09;28.10;27.70
23713;DHT22;12035;49.978;8.298;2022-07-04T22:00:09;28.00;27.60
23713;DHT22;12035;49.978;8.298;2022-07-04T22:05:08;28.00;27.80
23713;DHT22;12035;49.978;8.298;2022-07-04T22:10:07;27.90;28.30
23713;DHT22;12035;49.978;8.298;2022-07-04T22:15:06;27.90;27.90
23713;DHT22;12035;49.978;8.298;2022-07-04T22:20:05;27.90;28.00
23713;DHT22;12035;49.978;8.298;2022-07-04T22:25:05;27.80;28.00
23713;DHT22;12035;49.978;8.298;2022-07-04T22:30:04;27.80;28.20
23713;DHT22;12035;49.978;8.298;2022-07-04T22:35:03;27.80;28.20
23713;DHT22;12035;49.978;8.298;2022-07-04T22:40:00;27.70;28.20
23713;DHT22;12035;49.978;8.298;2022-07-04T22:44:59;27.60;28.20
23713;DHT22;12035;49.978;8.298;2022-07-04T22:49:56;27.60;28.40
23713;DHT22;12035;49.978;8.298;2022-07-04T22:54:53;27.60;28.50
23713;DHT22;12035;49.978;8.298;2022-07-04T22:59:52;27.50;28.40
23713;DHT22;12035;49.978;8.298;2022-07-04T23:04:52;27.40;28.60
23713;DHT22;12035;49.978;8.298;2022-07-04T23:09:50;27.40;28.70
23713;DHT22;12035;49.978;8.298;2022-07-04T23:14:48;27.30;29.20
23713;DHT22;12035;49.978;8.298;2022-07-04T23:19:45;27.30;28.90
23713;DHT22;12035;49.978;8.298;2022-07-04T23:24:44;27.20;28.90
23713;DHT22;12035;49.978;8.298;2022-07-04T23:29:41;27.10;29.10
23713;DHT22;12035;49.978;8.298;2022-07-04T23:34:38;27.00;29.10
23713;DHT22;12035;49.978;8.298;2022-07-04T23:39:35;27.00;29.20
23713;DHT22;12035;49.978;8.298;2022-07-04T23:44:33;26.90;29.20
23713;DHT22;12035;49.978;8.298;2022-07-04T23:49:30;26.80;29.30
23713;DHT22;12035;49.978;8.298;2022-07-04T23:54:28;26.70;29.40
23713;DHT22;12035;49.978;8.298;2022-07-04T23:59:25;26.70;29.50
